• Join FlightAware (Why Join?)
  • Login
  • US Flag 
10:10PM EDT


 

Airport Tracker/Info


-or-


 

Live Flight TrackerFlight Track Log ✈ UAL262 ✈ 27-Dec-2013 ✈ KIAD - KTPA

Flight Track Log - Related Links

Times and Time Zones

All times are in EST time to prevent confusion due to time zone crossing. See the UAL262 flight status page for this flight to view local times or setup timezone preferences in your user account.

Time Position Orientation Groundspeed Altitude Reporting Facility
EST Latitude Longitude Course Direction KTS MPH feet Rate Location/Type
06:04PM 38.8667 -77.4333 218° Southwest 201 231 3,100  Level Potomac TRACON
06:05PM 38.8000 -77.4500 191° South 255 293 5,400 2,760 Climbing Potomac TRACON
06:06PM 38.7333 -77.4667 191° South 280 322 8,400 2,280 Climbing Potomac TRACON
06:07PM 38.6667 -77.5333 218° Southwest 303 349 10,300 1,800 Climbing Potomac TRACON
06:08PM 38.5833 -77.6000 212° Southwest 373 429 12,300 2,160 Climbing Potomac TRACON
06:09PM 38.3907 -77.7546 218° Southwest  Level Estimated
06:09PM 38.4631 -77.7183 218° Southwest 379 436 15,700  Level Washington Center
06:10PM 38.3781 -77.8033 218° Southwest 379 436 17,700 1,800 Climbing Washington Center
06:11PM 38.2889 -77.8878 217° Southwest 390 449 19,300 1,680 Climbing Washington Center
06:12PM 38.1975 -77.9750 217° Southwest 405 466 21,200 1,620 Climbing Washington Center
06:13PM 38.1189 -78.0517 218° Southwest 405 466 22,600 1,440 Climbing Washington Center
06:14PM 38.0272 -78.1408 217° Southwest 405 466 24,200 1,620 Climbing Washington Center
06:15PM 37.9314 -78.2350 218° Southwest 405 466 25,900 900 Climbing Washington Center
06:16PM 37.8419 -78.3186 216° Southwest 399 459 26,000  Climbing Washington Center
06:17PM 37.7544 -78.4047 218° Southwest 399 459 26,000  Level Washington Center
06:18PM 37.6650 -78.4856 216° Southwest 399 459 26,000  Level Washington Center
06:19PM 37.5772 -78.5711 218° Southwest 399 459 26,000 120 Level Washington Center
06:20PM 37.4792 -78.6617 216° Southwest 399 459 26,300 480 Climbing Washington Center
06:21PM 37.3894 -78.7442 216° Southwest 399 459 27,000 840 Climbing Washington Center
06:22PM 37.2994 -78.8292 217° Southwest 399 459 28,100 1,200 Climbing Washington Center
06:23PM 37.2117 -78.9064 215° Southwest 399 459 29,500 900 Climbing Washington Center
06:24PM 37.1281 -78.9889 218° Southwest 399 459 30,000 240 Climbing Washington Center
06:25PM 37.0489 -79.0581 215° Southwest 399 459 30,000  Level Washington Center
06:26PM 36.9653 -79.1375 217° Southwest 399 459 30,000  Level Washington Center
06:27PM 36.8794 -79.2167 216° Southwest 399 459 30,000  Level Washington Center
06:28PM 36.7936 -79.2958 216° Southwest 399 459 30,000  Level Washington Center
06:31PM 36.6069 -79.4639 216° Southwest 403 464 30,000  Level Atlanta Center
06:32PM 36.5203 -79.5439 217° Southwest 398 458 30,000  Level Atlanta Center
06:33PM 36.4233 -79.6319 216° Southwest 398 458 30,000  Level Atlanta Center
06:34PM 36.3344 -79.7142 217° Southwest 398 458 30,000  Level Atlanta Center
06:35PM 36.2478 -79.7933 216° Southwest 398 458 30,000  Level Atlanta Center
06:36PM 36.1586 -79.8725 216° Southwest 398 458 30,000  Level Atlanta Center
06:37PM 36.0775 -79.9436 215° Southwest 398 458 30,000  Level Atlanta Center
06:38PM 35.9775 -80.0078 207° Southwest 398 458 30,000  Level Atlanta Center
06:39PM 35.8708 -80.0617 202° Southwest 407 468 30,000  Level Atlanta Center
06:40PM 35.7661 -80.1153 203° Southwest 413 475 30,000  Level Atlanta Center
06:41PM 35.6450 -80.1750 202° Southwest 418 481 30,000  Level Atlanta Center
06:42PM 35.5525 -80.2253 204° Southwest 423 487 30,000  Level Atlanta Center
06:43PM 35.4458 -80.2786 202° Southwest 418 481 30,000 600 Level Atlanta Center
06:44PM 35.3408 -80.3292 201° Southwest 412 474 31,300 960 Climbing Atlanta Center
06:45PM 35.2381 -80.3822 203° Southwest 406 467 32,000 180 Climbing Atlanta Center
06:47PM 34.9861 -80.5058 202° Southwest 417 480 32,000  Level Jacksonville Center
06:48PM 34.8808 -80.5569 202° Southwest 417 480 32,000 540 Level Jacksonville Center
06:49PM 34.7839 -80.6100 204° Southwest 407 468 33,100 960 Climbing Jacksonville Center
06:50PM 34.6928 -80.6528 201° Southwest 390 449 34,000 420 Climbing Jacksonville Center
06:51PM 34.5789 -80.7036 200° South 395 455 34,000  Level Jacksonville Center
06:52PM 34.4775 -80.7517 201° Southwest 401 461 34,000  Level Jacksonville Center
06:53PM 34.3700 -80.8147 206° Southwest 401 461 34,000  Level Jacksonville Center
06:54PM 34.2914 -80.8442 197° South 406 467 34,000  Level Jacksonville Center
06:55PM 34.1817 -80.8994 203° Southwest 401 461 34,000 -60 Level Jacksonville Center
06:56PM 34.0761 -80.9519 202° Southwest 401 461 33,900  Descending Jacksonville Center
06:57PM 33.9725 -80.9994 201° Southwest 401 461 34,000  Climbing Jacksonville Center
06:58PM 33.8586 -81.0544 202° Southwest 401 461 34,000  Level Jacksonville Center
06:59PM 33.7528 -81.1067 202° Southwest 406 467 34,000  Level Jacksonville Center
07:00PM 33.6575 -81.1558 203° Southwest 414 476 34,000  Level Jacksonville Center
07:01PM 33.5539 -81.2053 202° Southwest 414 476 34,000 -60 Level Jacksonville Center
07:02PM 33.4481 -81.2569 202° Southwest 414 476 33,900 -60 Descending Jacksonville Center
07:03PM 33.3422 -81.3089 202° Southwest 414 476 33,900  Level Jacksonville Center
07:04PM 33.2364 -81.3603 202° Southwest 414 476 34,000  Climbing Jacksonville Center
07:05PM 33.1306 -81.4142 203° Southwest 414 476 34,000  Level Jacksonville Center
07:06PM 33.0228 -81.4656 202° Southwest 414 476 34,000  Level Jacksonville Center
07:07PM 32.9169 -81.5167 202° Southwest 414 476 34,000  Level Jacksonville Center
07:08PM 32.8108 -81.5678 202° Southwest 414 476 34,000 -60 Level Jacksonville Center
07:09PM 32.7028 -81.6186 202° Southwest 419 482 33,900  Descending Jacksonville Center
07:10PM 32.5908 -81.6769 204° Southwest 408 470 34,000 -180 Climbing Jacksonville Center
07:11PM 32.4931 -81.7225 201° Southwest 414 476 33,600 -720 Descending Jacksonville Center
07:12PM 32.3808 -81.7758 202° Southwest 409 471 32,600 -840 Descending Jacksonville Center
07:13PM 32.2853 -81.8211 202° Southwest 414 476 32,000 -300 Descending Jacksonville Center
07:14PM 32.1686 -81.8789 203° Southwest 414 476 32,000  Level Jacksonville Center
07:15PM 32.0625 -81.9267 201° Southwest 414 476 32,000  Level Jacksonville Center
07:16PM 31.9669 -81.9694 201° Southwest 414 476 32,000  Level Jacksonville Center
07:17PM 31.8483 -82.0194 200° South 409 471 32,000  Level Jacksonville Center
07:18PM 31.7483 -82.0594 199° South 410 472 32,000  Level Jacksonville Center
07:19PM 31.6317 -82.1069 199° South 410 472 32,000 -60 Level Jacksonville Center
07:20PM 31.5339 -82.1492 200° South 410 472 31,900  Descending Jacksonville Center
07:21PM 31.4233 -82.1889 197° South 410 472 32,000  Climbing Jacksonville Center
07:22PM 31.3172 -82.2336 200° South 415 478 32,000  Level Jacksonville Center
07:23PM 31.2089 -82.2756 198° South 415 478 32,000 -60 Level Jacksonville Center
07:24PM 31.1025 -82.3200 200° South 410 472 31,900 -60 Descending Jacksonville Center
07:25PM 30.9919 -82.3619 198° South 410 472 31,900  Level Jacksonville Center
07:26PM 30.8836 -82.4061 199° South 410 472 32,000  Climbing Jacksonville Center
07:27PM 30.7753 -82.4453 197° South 410 472 32,000  Level Jacksonville Center
07:28PM 30.6667 -82.4917 200° South 415 478 32,000  Level Jacksonville Center
07:29PM 30.5542 -82.5308 197° South 415 478 32,000 -180 Level Jacksonville Center
07:30PM 30.4372 -82.5094 171° South 420 483 31,700 -720 Descending Jacksonville Center
07:31PM 30.3469 -82.3967 133° Southeast 409 471 30,600 -1,200 Descending Jacksonville Center
07:32PM 30.2628 -82.2528 124° Southeast 460 529 29,400 -1,080 Descending Jacksonville Center
07:33PM 30.1436 -82.2128 164° South 445 512 28,500 -960 Descending Jacksonville Center
07:34PM 30.0289 -82.2400 192° South 417 480 27,500 -840 Descending Jacksonville Center
07:35PM 29.9164 -82.2744 195° South 422 486 26,900 -540 Descending Jacksonville Center
07:37PM 29.6911 -82.3283 192° South 427 491 25,900 -720 Descending Jacksonville Center
07:38PM 29.5764 -82.3528 190° South 427 491 24,900 -1,020 Descending Jacksonville Center
07:39PM 29.4617 -82.3439 176° South 422 486 23,900 -1,020 Descending Jacksonville Center
07:40PM 29.3508 -82.3303 174° South 417 480 22,900 -1,080 Descending Jacksonville Center
07:41PM 29.2381 -82.3167 174° South 417 480 21,800 -1,620 Descending Jacksonville Center
07:42PM 29.1294 -82.3056 175° South 411 473 19,700 -1,980 Descending Jacksonville Center
07:43PM 29.0250 -82.2917 173° South 393 452 17,900 -2,100 Descending Jacksonville Center
07:44PM 28.9247 -82.2781 173° South 382 440 15,600 -1,920 Descending Jacksonville Center
07:45PM 28.7667 -82.2667 176° South 355 409 13,000 -960 Descending Tampa TRACON
07:47PM 28.6500 -82.2500 173° South 352 405 13,000 -900 Level Tampa TRACON
07:48PM 28.5500 -82.2500 180° South 347 399 11,200 -1,020 Descending Tampa TRACON
07:49PM 28.4667 -82.2500 180° South 341 392 11,000 -120 Descending Tampa TRACON
07:50PM 28.3667 -82.2833 196° South 334 384 11,000 -300 Level Tampa TRACON
07:51PM 28.2833 -82.3167 199° South 321 369 10,500 -1,320 Descending Tampa TRACON
07:52PM 28.1833 -82.3500 196° South 282 325 8,100 -2,100 Descending Tampa TRACON
07:53PM 28.1333 -82.3667 196° South 281 323 6,400 -1,680 Descending Tampa TRACON
07:54PM 28.0500 -82.4000 199° South 271 312 5,000 -720 Descending Tampa TRACON
07:55PM 27.9833 -82.4167 192° South 254 292 5,000 -540 Level Tampa TRACON
07:56PM 27.9167 -82.4167 180° South 232 267 4,000 -1,020 Descending Tampa TRACON
07:57PM 27.8667 -82.4500 211° Southwest 213 245 3,000 -960 Descending Tampa TRACON
07:58PM 27.8500 -82.5167 254° West 208 239 2,100 -780 Descending Tampa TRACON
07:59PM 27.9000 -82.5500 329° Northwest 142 163 1,400 -660 Descending Tampa TRACON
07:59PM 27.9167 -82.5500 360° North 123 142 1,000 -600 Descending Tampa TRACON